Oceanside, Oregon
Current Conditions -  °F | °C
As of 8:55 PM on Wednesday 22 Oct 2014 (Local Time) from KTMK Reporting Station
Drizzle Drizzle  
Wind Chill: 54°   Ceiling: 8000
Heat Index: 54°   Visibility: 10mi
Dew Point: 52°   Wind: 9mph
Humidity: 94%   Direction: 150°SSE
Pressure: 29.74"   Gusts: NA
Location:  45.46°N, 123.97°W
Report Text: KTMK 230355Z AUTO 15008KT 10SM -DZ SCT070 BKN080 BKN100 12/11 A2974 RMK AO2 P0002
Loading
Personal Weather Stations






























Interactive Weather Map New forecast layout! Learn more

10-Day Weather Forecast

Advertisements
Track Severe Weather on mobile